Time;durP1;ratioP1;P1;durP2;ratioP2;P2;SDS_P1;SDS_P2;PMS_P1;PMS_P2;Temp;Humidity;BMP_temperature;BMP_pressure;BME280_temperature;BME280_humidity;BME280_pressure;Samples;Min_cycle;Max_cycle;Signal;HPM_P1;HPM_P2
2022/10/27 00:57:43;;;;;;;13.35;5.03;;;;;;;11.52;100.00;102046.13;6232554;22;20016;-96
2022/10/27 06:07:03;;;;;;;15.20;6.28;;;;;;;11.03;100.00;102004.25;6217004;23;20021;-93
2022/10/27 07:13:11;;;;;;;11.75;4.90;;;;;;;11.35;100.00;101970.88;6219912;22;20431;-90
2022/10/27 07:15:38;;;;;;;8.47;4.53;;;;;;;11.46;100.00;101988.03;6216216;23;20008;-88
2022/10/27 07:18:05;;;;;;;8.30;4.53;;;;;;;11.46;100.00;101983.47;6215898;23;20313;-87
2022/10/27 07:20:56;;;;;;;12.82;4.80;;;;;;;11.41;100.00;101974.50;6233847;22;20017;-88
2022/10/27 07:23:31;;;;;;;13.70;4.57;;;;;;;11.46;100.00;101978.09;6189562;23;20489;-87
2022/10/27 07:26:06;;;;;;;6.35;4.13;;;;;;;11.44;100.00;101977.50;6214266;23;20374;-88
2022/10/27 07:29:34;;;;;;;10.27;4.00;;;;;;;11.45;100.00;101967.59;6214852;23;20008;-89
2022/10/27 07:32:26;;;;;;;9.23;3.88;;;;;;;11.63;100.00;101991.63;6146344;23;20013;-89
2022/10/27 07:42:03;;;;;;;10.15;4.28;;;;;;;11.82;100.00;101991.47;6016866;23;20021;-88
2022/10/27 07:48:14;;;;;;;8.37;4.07;;;;;;;11.84;100.00;101964.38;6031300;23;20563;-89
2022/10/27 07:51:05;;;;;;;8.80;3.97;;;;;;;12.00;100.00;101979.75;6033707;23;20088;-89
2022/10/27 07:53:42;;;;;;;8.60;3.40;;;;;;;12.17;100.00;101987.03;6032117;23;20566;-89
2022/10/27 07:56:38;;;;;;;9.18;3.90;;;;;;;12.49;100.00;102006.19;6032309;23;20014;-89
2022/10/27 07:59:42;;;;;;;7.72;3.33;;;;;;;12.66;100.00;102016.97;6079473;23;20020;-89
2022/10/27 08:02:10;;;;;;;6.75;2.70;;;;;;;12.71;100.00;101995.53;6148318;23;20009;-88
2022/10/27 08:04:45;;;;;;;6.55;2.97;;;;;;;12.82;100.00;102009.16;6150314;23;20144;-88
2022/10/27 08:10:16;;;;;;;5.47;3.07;;;;;;;12.96;100.00;102001.59;6089156;23;20343;-88
2022/10/27 08:12:42;;;;;;;6.70;3.25;;;;;;;12.91;100.00;101979.97;6097006;23;20028;-88
2022/10/27 08:15:09;;;;;;;11.15;3.25;;;;;;;13.07;100.00;102003.38;6210785;23;20005;-87
2022/10/27 08:17:34;;;;;;;8.13;3.22;;;;;;;13.09;100.00;101989.66;6185784;23;20443;-88
2022/10/27 08:23:37;;;;;;;;;;;;;;;;;;;;;
2022/10/27 08:26:02;;;;;;;6.50;3.03;;;;;;;13.23;100.00;101974.00;6211270;23;20088;-91
2022/10/27 08:28:30;;;;;;;12.40;3.13;;;;;;;13.24;100.00;101954.09;6211925;23;20036;-90
2022/10/27 08:30:58;;;;;;;8.05;2.92;;;;;;;13.33;100.00;101968.72;6211771;23;20008;-91
2022/10/27 08:36:16;;;;;;;5.80;3.03;;;;;;;13.51;100.00;101972.25;6218683;22;20357;-91
2022/10/27 08:38:51;;;;;;;6.05;3.15;;;;;;;13.58;100.00;101964.78;6185171;23;20043;-91
2022/10/27 08:41:34;;;;;;;7.45;2.92;;;;;;;13.78;100.00;101991.19;6212111;23;20012;-90
2022/10/27 08:44:36;;;;;;;9.20;3.47;;;;;;;13.96;100.00;101995.41;6212323;23;20079;-93
2022/10/27 08:47:38;;;;;;;7.00;2.88;;;;;;;13.93;100.00;101958.19;6212880;23;20009;-92
2022/10/27 08:53:47;;;;;;;7.38;2.97;;;;;;;14.20;100.00;101973.56;6211272;23;20100;-95
2022/10/27 08:56:43;;;;;;;;;;;;;;;;;;;;;
2022/10/27 09:06:36;;;;;;;7.13;2.70;;;;;;;14.56;100.00;101949.63;6220131;22;20024;-92
2022/10/27 09:28:08;;;;;;;9.68;1.80;;;;;;;15.72;98.27;101930.06;6213263;23;20020;-90
2022/10/27 09:37:46;;;;;;;3.67;1.55;;;;;;;16.22;94.67;101923.44;6120348;23;20064;-92
2022/10/27 09:40:47;;;;;;;4.25;1.50;;;;;;;16.29;94.76;101921.25;6211664;23;20005;-94
2022/10/27 09:43:13;;;;;;;5.00;1.63;;;;;;;16.33;91.02;101914.22;6181881;23;20016;-91
2022/10/27 09:46:26;;;;;;;8.97;1.73;;;;;;;16.60;93.33;101934.78;6211118;23;20139;-92
2022/10/27 09:49:26;;;;;;;;;;;;;;;;;;;;;
2022/10/27 09:59:04;;;;;;;6.23;1.80;;;;;;;16.91;92.69;101913.88;6120183;23;20017;-93
2022/10/27 10:18:48;;;;;;;;;;;;;;;;;;;;;
2022/10/27 10:30:02;;;;;;;4.30;1.60;;;;;;;18.07;83.00;101905.03;6215274;22;20035;-91
2022/10/27 10:46:50;;;;;;;2.35;1.13;;;;;;;18.54;78.66;101879.13;6017581;23;20041;-90
2022/10/27 10:49:25;;;;;;;3.47;1.30;;;;;;;18.71;78.57;101889.53;6212718;23;20005;-91
2022/10/27 11:07:30;;;;;;;5.15;1.35;;;;;;;19.15;78.23;101874.16;6237019;22;20009;-91
2022/10/27 11:19:51;;;;;;;4.53;1.30;;;;;;;19.50;76.49;101879.38;6003962;23;20091;-92
2022/10/27 11:29:17;;;;;;;4.75;1.50;;;;;;;19.38;76.14;101863.50;6018124;23;20031;-91
2022/10/27 11:36:01;;;;;;;4.13;1.65;;;;;;;19.30;77.82;101847.88;6121199;23;20083;-92
2022/10/27 11:39:14;;;;;;;8.55;1.60;;;;;;;19.53;77.13;101859.78;6140962;23;20285;-90
2022/10/27 11:42:33;;;;;;;4.27;1.70;;;;;;;19.64;77.34;101860.44;6212047;23;20004;-91
2022/10/27 11:49:05;;;;;;;8.20;1.80;;;;;;;20.00;74.97;101862.63;6213336;23;20070;-91
2022/10/27 11:59:24;;;;;;;5.73;1.80;;;;;;;19.30;77.54;101853.31;6218125;22;20263;-91
2022/10/27 16:48:21;;;;;;;15.70;4.90;;;;;;;17.61;95.67;101757.84;6214044;22;20059;-91
2022/10/27 16:50:46;;;;;;;15.68;4.72;;;;;;;17.52;96.37;101768.47;6212543;23;20583;-91
2022/10/27 16:53:22;;;;;;;;;;;;;;;;;;;;;
2022/10/27 16:59:32;;;;;;;11.73;3.80;;;;;;;17.05;98.11;101746.28;6033257;23;20030;-91
2022/10/27 17:10:36;;;;;;;10.33;3.67;;;;;;;17.00;99.27;101770.69;6225669;22;20263;-92
2022/10/27 17:17:01;;;;;;;5.45;3.33;;;;;;;16.89;100.00;101763.69;6098230;23;20366;-95
2022/10/27 17:22:58;;;;;;;10.85;3.97;;;;;;;16.78;100.00;101752.91;6104127;23;20023;-96
2022/10/27 17:25:32;;;;;;;10.20;3.70;;;;;;;16.73;100.00;101752.91;6092736;23;20033;-94
2022/10/27 17:28:07;;;;;;;9.23;4.00;;;;;;;16.54;100.00;101731.06;6183651;23;20355;-92
2022/10/27 17:30:36;;;;;;;10.73;3.95;;;;;;;16.48;100.00;101724.88;6182743;23;19997;-91
2022/10/27 17:33:01;;;;;;;11.93;4.40;;;;;;;16.44;100.00;101726.50;6179936;23;20009;-92
2022/10/27 17:35:26;;;;;;;14.43;4.27;;;;;;;16.37;100.00;101736.81;6184280;23;20088;-93
2022/10/27 17:41:14;;;;;;;8.77;3.87;;;;;;;16.30;100.00;101741.69;6200863;23;20015;-91
2022/10/27 17:44:45;;;;;;;14.87;4.10;;;;;;;16.17;100.00;101726.84;6198266;22;20253;-92
2022/10/27 17:46:49;;;;;;;12.80;4.60;;;;;;;16.14;100.00;101719.31;6162039;23;20389;-94
2022/10/27 17:49:23;;;;;;;12.90;4.50;;;;;;;16.07;100.00;101716.06;6182851;23;20027;-92
2022/10/27 17:51:49;;;;;;;19.67;4.70;;;;;;;16.04;100.00;101722.84;6182941;23;20144;-92
2022/10/27 17:54:17;;;;;;;15.67;4.10;;;;;;;16.05;100.00;101729.84;6181910;23;20422;-91
2022/10/27 17:56:42;;;;;;;9.52;4.78;;;;;;;16.02;100.00;101733.91;6180149;23;20005;-90
2022/10/27 17:59:57;;;;;;;15.33;4.63;;;;;;;15.92;100.00;101716.88;6189362;23;20425;-92
2022/10/27 18:06:03;;;;;;;10.25;4.72;;;;;;;15.95;100.00;101730.69;6048343;23;20031;-92
2022/10/27 18:08:32;;;;;;;12.27;5.10;;;;;;;15.81;100.00;101727.69;6192578;23;20480;-92
2022/10/27 18:11:17;;;;;;;19.58;5.70;;;;;;;15.85;100.00;101744.16;6182032;23;20016;-91
2022/10/27 18:13:47;;;;;;;12.90;5.32;;;;;;;15.74;100.00;101732.53;6183250;23;20132;-91
2022/10/27 18:16:21;;;;;;;11.38;4.93;;;;;;;15.76;100.00;101752.00;6185155;23;20001;-90
2022/10/27 18:18:51;;;;;;;10.82;5.25;;;;;;;15.70;100.00;101750.38;6185757;23;20005;-91
2022/10/27 18:21:18;;;;;;;16.98;5.55;;;;;;;15.62;100.00;101745.50;6184725;23;20024;-90
2022/10/27 18:23:59;;;;;;;12.15;4.93;;;;;;;15.58;100.00;101742.56;6185864;23;20012;-90
2022/10/27 18:27:02;;;;;;;15.67;5.80;;;;;;;15.57;100.00;101739.03;6183376;23;20005;-91
2022/10/27 18:38:55;;;;;;;12.75;5.28;;;;;;;15.23;100.00;101717.91;6183242;23;20396;-93
2022/10/27 18:41:28;;;;;;;10.40;5.25;;;;;;;15.27;100.00;101729.00;6182663;23;20472;-92
2022/10/27 18:43:54;;;;;;;12.95;5.55;;;;;;;15.30;100.00;101736.56;6182202;23;20013;-92
2022/10/27 18:46:21;;;;;;;19.37;5.70;;;;;;;15.20;100.00;101726.53;6163457;23;20012;-94
2022/10/27 18:49:39;;;;;;;12.93;5.32;;;;;;;15.07;100.00;101717.06;6182596;23;20001;-94
2022/10/27 18:52:17;;;;;;;14.98;5.78;;;;;;;15.25;100.00;101745.47;6183179;23;20011;-94
2022/10/27 18:58:04;;;;;;;12.93;6.40;;;;;;;15.28;100.00;101742.25;6191169;23;20270;-92
2022/10/27 19:00:30;;;;;;;18.83;6.70;;;;;;;15.22;100.00;101710.91;6192177;23;20004;-93
2022/10/27 19:03:21;;;;;;;16.33;6.87;;;;;;;15.19;100.00;101714.13;6187498;23;20020;-95
2022/10/27 19:05:54;;;;;;;16.73;6.30;;;;;;;15.21;100.00;101714.69;6163480;23;20263;-93
2022/10/27 19:08:20;;;;;;;17.98;7.50;;;;;;;15.35;100.00;101724.94;6189071;23;20009;-94
2022/10/27 19:11:02;;;;;;;14.30;6.53;;;;;;;15.45;100.00;101725.78;6187791;23;20421;-96
2022/10/27 19:13:34;;;;;;;12.43;6.53;;;;;;;15.40;100.00;101715.00;6187214;23;20016;-92
2022/10/27 19:16:29;;;;;;;13.45;6.13;;;;;;;15.43;100.00;101714.44;6187851;23;20009;-93
2022/10/27 19:18:54;;;;;;;15.68;6.53;;;;;;;15.48;100.00;101705.53;6189532;23;20005;-95
2022/10/27 19:21:25;;;;;;;16.20;6.37;;;;;;;15.60;100.00;101724.97;6204817;22;20025;-96
2022/10/27 19:24:01;;;;;;;19.15;6.38;;;;;;;15.54;100.00;101698.25;6224407;23;20005;-96
2022/10/27 19:26:34;;;;;;;14.98;6.32;;;;;;;15.69;100.00;101719.06;6225180;23;19988;-96
2022/10/27 19:28:59;;;;;;;17.63;6.18;;;;;;;15.71;100.00;101719.56;6239674;23;20012;-96
2022/10/27 19:31:37;;;;;;;23.03;6.70;;;;;;;15.63;100.00;101702.00;6238717;22;20313;-94
2022/10/27 19:34:09;;;;;;;16.77;6.60;;;;;;;15.71;100.00;101722.25;6213053;23;20047;-94
2022/10/27 19:36:35;;;;;;;12.30;6.20;;;;;;;15.72;100.00;101722.00;6239282;22;20004;-94
2022/10/27 19:39:04;;;;;;;13.77;6.23;;;;;;;15.76;100.00;101722.28;6237720;23;19985;-94
2022/10/27 19:41:32;;;;;;;24.25;7.07;;;;;;;15.69;100.00;101717.16;6236835;23;20004;-94
2022/10/27 19:43:58;;;;;;;16.17;7.15;;;;;;;15.63;100.00;101703.91;6236055;23;20012;-93
2022/10/27 19:46:33;;;;;;;18.23;7.55;;;;;;;15.73;100.00;101728.22;6232569;23;20004;-95
2022/10/27 19:49:15;;;;;;;17.42;6.60;;;;;;;15.60;100.00;101710.69;6240695;22;20015;-95
2022/10/27 19:51:40;;;;;;;18.87;7.10;;;;;;;15.77;100.00;101725.81;6230573;22;20005;-95
2022/10/27 19:54:39;;;;;;;20.07;7.43;;;;;;;15.78;100.00;101730.13;6221946;23;20258;-95
2022/10/27 19:57:04;;;;;;;16.13;7.65;;;;;;;15.71;100.00;101716.84;6218824;23;20008;-96
2022/10/27 19:59:30;;;;;;;21.97;7.80;;;;;;;15.74;100.00;101716.31;6218427;23;20082;-96
2022/10/27 20:02:42;;;;;;;;;;;;;;;;;;;;;
2022/10/27 20:21:31;;;;;;;17.67;6.97;;;;;;;15.28;100.00;101715.25;6206442;22;20012;-96
2022/10/27 20:24:03;;;;;;;15.70;6.88;;;;;;;15.26;100.00;101708.47;6220180;23;20012;-96
2022/10/27 20:26:29;;;;;;;19.67;7.55;;;;;;;15.29;100.00;101713.34;6227406;23;20008;-96
2022/10/27 20:28:58;;;;;;;17.92;7.40;;;;;;;15.28;100.00;101709.00;6238127;23;19995;-96
2022/10/27 20:31:24;;;;;;;16.73;6.53;;;;;;;15.31;100.00;101710.38;6227811;23;20016;-96
2022/10/27 20:33:58;;;;;;;15.67;7.03;;;;;;;15.31;100.00;101705.78;6206483;23;20337;-96
2022/10/27 20:36:29;;;;;;;13.80;7.17;;;;;;;15.35;100.00;101714.97;6189743;23;20247;-96
2022/10/27 20:38:57;;;;;;;15.77;6.65;;;;;;;15.31;100.00;101707.69;6239404;23;20000;-96
2022/10/27 20:41:28;;;;;;;19.95;7.20;;;;;;;15.33;100.00;101714.44;6215531;23;20000;-96
2022/10/27 20:44:01;;;;;;;14.35;6.80;;;;;;;15.41;100.00;101729.28;6237566;23;19995;-96
2022/10/27 20:57:33;;;;;;;13.10;6.50;;;;;;;15.28;100.00;101720.63;6236777;23;20020;-96
2022/10/27 20:59:59;;;;;;;19.98;6.60;;;;;;;15.23;100.00;101714.44;6212207;23;20005;-96
2022/10/27 21:02:31;;;;;;;17.30;6.72;;;;;;;15.26;100.00;101730.88;6209106;23;20047;-96
2022/10/27 21:05:39;;;;;;;14.30;6.93;;;;;;;15.18;100.00;101723.31;6188459;23;20025;-96
2022/10/27 21:14:56;;;;;;;15.67;6.63;;;;;;;14.80;100.00;101690.28;6238871;23;20023;-96
2022/10/27 21:17:34;;;;;;;19.38;6.60;;;;;;;14.79;100.00;101688.69;6192148;23;20027;-96
2022/10/27 21:20:07;;;;;;;17.17;7.32;;;;;;;14.93;100.00;101705.16;6211107;23;20233;-96
2022/10/27 21:23:21;;;;;;;;;;;;;;;;;;;;;
2022/10/27 21:26:10;;;;;;;15.93;6.85;;;;;;;14.95;100.00;101693.03;6123050;23;20003;-96
2022/10/27 21:28:43;;;;;;;16.38;6.93;;;;;;;14.91;100.00;101689.25;6210289;23;20004;-96
2022/10/27 21:31:15;;;;;;;22.00;6.78;;;;;;;15.01;100.00;101696.56;6229974;23;20005;-96
2022/10/27 21:33:43;;;;;;;14.67;7.27;;;;;;;14.91;100.00;101680.34;6177153;23;20012;-96
2022/10/27 21:36:13;;;;;;;19.00;7.03;;;;;;;14.96;100.00;101685.75;6175700;23;20083;-96
2022/10/27 21:44:14;;;;;;;17.90;6.60;;;;;;;15.03;100.00;101698.97;6231082;22;20027;-96
2022/10/27 21:46:42;;;;;;;19.83;7.05;;;;;;;14.97;100.00;101692.78;6232914;23;20066;-96
2022/10/27 21:49:10;;;;;;;17.23;6.70;;;;;;;15.02;100.00;101700.88;6214826;23;20009;-96
2022/10/27 21:52:00;;;;;;;17.27;6.25;;;;;;;15.03;100.00;101698.97;6241416;22;20097;-96
2022/10/27 22:02:58;;;;;;;13.93;6.47;;;;;;;14.91;100.00;101701.91;6226996;22;20017;-96
2022/10/27 22:05:58;;;;;;;12.55;6.07;;;;;;;14.73;100.00;101681.66;6240850;23;20021;-96
2022/10/27 22:08:52;;;;;;;15.87;6.33;;;;;;;14.89;100.00;101709.47;6178773;23;20012;-96
2022/10/27 22:35:20;;;;;;;16.08;6.70;;;;;;;14.47;100.00;101658.06;6095314;23;20022;-96
2022/10/27 22:56:07;;;;;;;16.60;6.90;;;;;;;13.89;100.00;101631.91;6184969;23;20396;-96
2022/10/27 22:59:08;;;;;;;13.10;6.97;;;;;;;13.77;100.00;101631.28;6092654;23;20134;-96
2022/10/27 23:25:11;;;;;;;11.70;7.05;;;;;;;13.51;100.00;101627.63;6214981;22;20024;-96
2022/10/27 23:28:13;;;;;;;19.63;7.28;;;;;;;13.67;100.00;101653.59;6215183;23;20004;-96
